Time;durP1;ratioP1;P1;durP2;ratioP2;P2;SDS_P1;SDS_P2;PMS_P1;PMS_P2;Temp;Humidity;BMP_temperature;BMP_pressure;BME280_temperature;BME280_humidity;BME280_pressure;Samples;Min_cycle;Max_cycle;Signal;HPM_P1;HPM_P2
2020/12/23 00:00:15;;;;;;;28.63;15.02;;;205.10;2048.00;;;;;;5096499;28;20024;-70
2020/12/23 00:02:42;;;;;;;31.00;14.73;;;205.00;2073.60;;;;;;5097409;28;20059;-69
2020/12/23 00:05:14;;;;;;;37.78;15.07;;;205.20;2048.00;;;;;;5097410;28;20069;-69
2020/12/23 00:07:40;;;;;;;25.92;13.93;;;205.10;2073.60;;;;;;5097719;28;20054;-69
2020/12/23 00:10:07;;;;;;;28.70;16.17;;;204.90;2099.20;;;;;;5097872;28;20112;-69
2020/12/23 00:12:33;;;;;;;28.77;15.02;;;204.80;2124.80;;;;;;5097493;28;20062;-69
2020/12/23 00:15:00;;;;;;;30.08;14.63;;;180.10;2124.80;;;;;;5097563;28;20026;-69
2020/12/23 00:17:26;;;;;;;27.23;14.02;;;180.10;2124.80;;;;;;5097220;28;20023;-69
2020/12/23 00:19:51;;;;;;;21.25;11.98;;;204.90;2124.80;;;;;;5097073;28;20032;-69
2020/12/23 00:22:17;;;;;;;39.72;22.25;;;204.80;2124.80;;;;;;5097421;28;20410;-70
2020/12/23 00:24:44;;;;;;;39.88;23.15;;;180.00;2150.40;;;;;;5097720;28;20092;-69
2020/12/23 00:27:10;;;;;;;40.97;21.98;;;180.00;2124.80;;;;;;5097427;28;20505;-69
2020/12/23 00:29:37;;;;;;;34.28;17.58;;;180.00;2099.20;;;;;;5096774;28;20410;-69
2020/12/23 00:32:03;;;;;;;31.02;17.65;;;180.00;2099.20;;;;;;5097243;28;20047;-70
2020/12/23 00:34:29;;;;;;;40.63;22.27;;;180.10;2099.20;;;;;;5097390;28;20110;-69
2020/12/23 00:36:56;;;;;;;37.67;20.27;;;179.70;2150.40;;;;;;5097610;28;20047;-69
2020/12/23 00:39:22;;;;;;;44.83;21.00;;;179.80;2150.40;;;;;;5097317;28;20024;-69
2020/12/23 00:41:49;;;;;;;40.30;20.52;;;180.00;2150.40;;;;;;5097231;28;20433;-69
2020/12/23 00:44:15;;;;;;;49.15;24.77;;;180.00;2124.80;;;;;;5096958;28;20020;-69
2020/12/23 00:46:41;;;;;;;49.08;24.17;;;180.00;2124.80;;;;;;5097188;28;20496;-71
2020/12/23 00:49:07;;;;;;;57.45;27.30;;;180.00;2124.80;;;;;;5096955;28;20028;-69
2020/12/23 00:51:34;;;;;;;63.90;31.95;;;179.60;2150.40;;;;;;5097034;28;20028;-71
2020/12/23 00:54:00;;;;;;;71.65;33.92;;;179.60;2150.40;;;;;;5098588;28;20031;-70
2020/12/23 00:56:25;;;;;;;70.40;25.83;;;179.60;2150.40;;;;;;5101057;28;20024;-70
2020/12/23 00:58:51;;;;;;;56.42;22.15;;;179.50;2150.40;;;;;;5101191;28;20050;-71
2020/12/23 01:01:17;;;;;;;51.92;20.83;;;179.40;2150.40;;;;;;5100831;28;20065;-70
2020/12/23 01:03:43;;;;;;;40.03;18.42;;;179.50;2124.80;;;;;;5100202;28;20024;-69
2020/12/23 01:06:11;;;;;;;43.80;19.60;;;179.40;2150.40;;;;;;5101093;28;20020;-69
2020/12/23 01:08:37;;;;;;;49.67;19.88;;;179.50;2150.40;;;;;;5099385;28;20035;-70
2020/12/23 01:11:07;;;;;;;36.80;18.02;;;179.50;2150.40;;;;;;5100523;28;20020;-70
2020/12/23 01:13:33;;;;;;;45.35;18.83;;;179.60;2124.80;;;;;;5100594;28;20028;-69
2020/12/23 01:16:00;;;;;;;45.17;19.02;;;179.50;2150.40;;;;;;5100617;28;20031;-70
2020/12/23 01:18:26;;;;;;;49.28;19.60;;;179.60;2124.80;;;;;;5101001;28;20024;-68
2020/12/23 01:20:52;;;;;;;36.55;18.30;;;179.60;2124.80;;;;;;5100531;28;20039;-69
2020/12/23 01:23:19;;;;;;;48.10;20.42;;;179.60;2124.80;;;;;;5100386;28;20032;-70
2020/12/23 01:25:44;;;;;;;60.63;20.98;;;179.70;2124.80;;;;;;5100947;28;20070;-69
2020/12/23 01:28:10;;;;;;;52.33;20.63;;;179.60;2124.80;;;;;;5100584;28;20118;-70
2020/12/23 01:30:36;;;;;;;43.40;19.95;;;179.80;2124.80;;;;;;5100041;28;20021;-70
2020/12/23 01:33:03;;;;;;;52.40;19.38;;;179.60;2124.80;;;;;;5100903;28;20425;-69
2020/12/23 01:35:29;;;;;;;47.33;19.98;;;179.60;2150.40;;;;;;5100153;28;20052;-69
2020/12/23 01:37:55;;;;;;;40.80;19.00;;;179.50;2176.00;;;;;;5100146;28;20079;-69
2020/12/23 01:40:20;;;;;;;46.30;17.85;;;179.30;2227.20;;;;;;5100457;28;20020;-69
2020/12/23 01:42:46;;;;;;;49.97;19.20;;;179.40;2201.60;;;;;;5099471;28;20024;-69
2020/12/23 01:45:12;;;;;;;54.95;19.92;;;179.50;2201.60;;;;;;5099991;28;20409;-71
2020/12/23 01:47:43;;;;;;;48.22;20.45;;;179.50;2201.60;;;;;;5100237;28;20073;-70
2020/12/23 01:50:09;;;;;;;40.35;17.88;;;179.50;2201.60;;;;;;5100261;28;20059;-70
2020/12/23 01:52:35;;;;;;;38.67;17.15;;;179.80;2176.00;;;;;;5099806;28;20035;-70
2020/12/23 01:55:02;;;;;;;39.75;16.45;;;179.60;2176.00;;;;;;5100052;28;20028;-70
2020/12/23 01:57:28;;;;;;;36.70;17.15;;;179.50;2176.00;;;;;;5100155;28;20125;-70
2020/12/23 01:59:54;;;;;;;34.42;16.55;;;179.50;2150.40;;;;;;5100320;28;20041;-70
2020/12/23 02:02:31;;;;;;;40.22;16.45;;;179.50;2176.00;;;;;;5099734;28;20081;-71
2020/12/23 02:05:02;;;;;;;38.20;14.82;;;179.50;2176.00;;;;;;5099424;28;20020;-69
2020/12/23 02:07:29;;;;;;;36.42;15.63;;;179.60;2150.40;;;;;;5099998;28;20031;-71
2020/12/23 02:09:57;;;;;;;34.30;15.32;;;179.60;2176.00;;;;;;5099850;28;20118;-69
2020/12/23 02:12:23;;;;;;;32.27;16.93;;;179.80;2150.40;;;;;;5099676;28;20043;-71
2020/12/23 02:14:50;;;;;;;35.60;16.60;;;179.70;2201.60;;;;;;5099414;28;20028;-70
2020/12/23 02:17:17;;;;;;;29.60;16.15;;;179.80;2201.60;;;;;;5099441;28;20024;-70
2020/12/23 02:19:52;;;;;;;34.83;16.55;;;180.00;2176.00;;;;;;5099089;28;20024;-68
2020/12/23 02:22:28;;;;;;;30.40;16.20;;;179.80;2201.60;;;;;;5099653;28;20028;-71
2020/12/23 02:24:55;;;;;;;40.15;15.82;;;179.90;2176.00;;;;;;5099341;28;20349;-69
2020/12/23 02:27:22;;;;;;;33.92;16.42;;;180.00;2176.00;;;;;;5098960;28;20024;-69
2020/12/23 02:29:49;;;;;;;30.02;16.08;;;179.90;2201.60;;;;;;5099711;28;20028;-69
2020/12/23 02:32:16;;;;;;;24.42;15.07;;;179.90;2201.60;;;;;;5099240;28;20040;-70
2020/12/23 02:34:42;;;;;;;35.38;15.48;;;179.90;2176.00;;;;;;5099617;28;20043;-69
2020/12/23 02:37:09;;;;;;;28.05;15.05;;;180.10;2176.00;;;;;;5098789;28;20070;-69
2020/12/23 02:39:36;;;;;;;29.08;14.63;;;180.10;2176.00;;;;;;5099046;28;20031;-69
2020/12/23 02:42:04;;;;;;;24.35;13.93;;;180.10;2176.00;;;;;;5098970;28;20077;-69
2020/12/23 02:44:30;;;;;;;33.35;14.70;;;180.10;2176.00;;;;;;5099249;28;20020;-69
2020/12/23 02:46:58;;;;;;;28.88;15.00;;;179.90;2176.00;;;;;;5099131;28;20107;-69
2020/12/23 02:49:25;;;;;;;31.60;15.93;;;179.90;2176.00;;;;;;5098506;28;20118;-69
2020/12/23 02:51:51;;;;;;;25.33;14.82;;;179.90;2176.00;;;;;;5099258;28;20089;-69
2020/12/23 02:54:17;;;;;;;29.20;15.38;;;179.90;2176.00;;;;;;5098980;28;20164;-69
2020/12/23 02:56:43;;;;;;;48.92;13.88;;;180.00;2176.00;;;;;;5099268;28;20070;-69
2020/12/23 02:59:09;;;;;;;26.42;15.88;;;180.00;2176.00;;;;;;5098900;28;20349;-71
2020/12/23 03:01:39;;;;;;;33.70;15.68;;;180.10;2150.40;;;;;;5098610;28;20112;-70
2020/12/23 03:04:05;;;;;;;26.30;14.38;;;180.00;2176.00;;;;;;5098841;28;20424;-69
2020/12/23 03:06:31;;;;;;;25.00;13.00;;;180.10;2150.40;;;;;;5098472;28;20055;-69
2020/12/23 03:08:57;;;;;;;27.77;14.10;;;204.80;2150.40;;;;;;5098406;28;20020;-70
2020/12/23 03:11:23;;;;;;;24.58;14.63;;;204.90;2150.40;;;;;;5098386;28;20024;-69
2020/12/23 03:13:49;;;;;;;30.17;15.15;;;204.80;2150.40;;;;;;5097970;28;20089;-69
2020/12/23 03:16:15;;;;;;;29.67;15.07;;;204.80;2150.40;;;;;;5097757;28;20081;-69
2020/12/23 03:18:41;;;;;;;29.73;13.90;;;204.90;2124.80;;;;;;5098809;28;20019;-68
2020/12/23 03:21:08;;;;;;;29.35;15.02;;;205.10;2124.80;;;;;;5098445;28;20027;-68
2020/12/23 03:23:35;;;;;;;28.63;15.10;;;204.90;2124.80;;;;;;5097934;28;20077;-70
2020/12/23 03:26:01;;;;;;;29.45;14.68;;;204.90;2124.80;;;;;;5098953;28;20031;-71
2020/12/23 03:28:27;;;;;;;26.25;14.57;;;204.80;2150.40;;;;;;5098112;28;20020;-69
2020/12/23 03:30:53;;;;;;;31.10;15.27;;;205.00;2150.40;;;;;;5098566;28;20085;-70
2020/12/23 03:33:19;;;;;;;30.42;15.90;;;205.00;2124.80;;;;;;5098513;28;20191;-68
2020/12/23 03:35:45;;;;;;;29.05;16.38;;;205.10;2124.80;;;;;;5097981;28;20410;-69
2020/12/23 03:38:10;;;;;;;32.33;17.38;;;205.10;2099.20;;;;;;5097891;28;20020;-68
2020/12/23 03:40:37;;;;;;;34.83;17.88;;;205.10;2099.20;;;;;;5098105;28;20046;-68
2020/12/23 03:43:03;;;;;;;37.03;19.80;;;205.10;2099.20;;;;;;5098051;28;20107;-69
2020/12/23 03:45:29;;;;;;;41.42;21.13;;;205.20;2099.20;;;;;;5098314;28;20177;-69
2020/12/23 03:47:55;;;;;;;39.13;22.00;;;205.20;2073.60;;;;;;5097856;28;20417;-68
2020/12/23 03:50:21;;;;;;;40.17;21.27;;;204.80;2124.80;;;;;;5097934;28;20333;-70
2020/12/23 03:52:47;;;;;;;47.63;24.83;;;205.00;2099.20;;;;;;5097503;28;20043;-68
2020/12/23 03:55:13;;;;;;;39.38;21.95;;;204.90;2124.80;;;;;;5097910;28;20081;-69
2020/12/23 03:57:39;;;;;;;42.10;20.52;;;204.90;2124.80;;;;;;5097333;28;20020;-69
2020/12/23 04:00:07;;;;;;;41.00;20.13;;;205.00;2124.80;;;;;;5098060;28;20027;-69
2020/12/23 04:02:34;;;;;;;37.70;20.65;;;205.10;2099.20;;;;;;5097765;28;20077;-69
2020/12/23 04:05:00;;;;;;;42.15;20.35;;;204.80;2124.80;;;;;;5097140;28;20383;-69
2020/12/23 04:07:27;;;;;;;35.95;19.63;;;180.10;2124.80;;;;;;5097656;28;20028;-69
2020/12/23 04:09:53;;;;;;;37.15;19.48;;;180.10;2150.40;;;;;;5097395;28;20028;-69
2020/12/23 04:12:19;;;;;;;33.13;19.83;;;180.10;2150.40;;;;;;5097541;28;20036;-69
2020/12/23 04:14:45;;;;;;;34.40;18.60;;;180.10;2150.40;;;;;;5097545;28;20028;-69
2020/12/23 04:17:11;;;;;;;31.92;18.48;;;180.10;2150.40;;;;;;5097310;28;20054;-70
2020/12/23 04:19:37;;;;;;;36.58;20.13;;;180.10;2150.40;;;;;;5097329;28;20035;-69
2020/12/23 04:22:03;;;;;;;37.20;20.42;;;204.80;2150.40;;;;;;5097495;28;20028;-69
2020/12/23 04:24:29;;;;;;;36.17;19.10;;;204.80;2150.40;;;;;;5097227;28;20073;-69
2020/12/23 04:26:55;;;;;;;41.42;19.17;;;204.80;2150.40;;;;;;5097286;28;20132;-70
2020/12/23 04:29:21;;;;;;;37.78;20.10;;;180.10;2176.00;;;;;;5097656;28;20097;-69
2020/12/23 04:31:47;;;;;;;34.15;18.27;;;204.90;2150.40;;;;;;5096718;28;20402;-70
2020/12/23 04:34:13;;;;;;;34.08;18.13;;;205.00;2124.80;;;;;;5097357;28;20406;-69
2020/12/23 04:36:40;;;;;;;35.10;17.30;;;204.80;2124.80;;;;;;5097370;28;20110;-69
2020/12/23 04:39:06;;;;;;;32.17;19.17;;;180.10;2150.40;;;;;;5096582;28;20414;-70
2020/12/23 04:41:35;;;;;;;34.33;18.80;;;180.10;2150.40;;;;;;5097251;28;20035;-69
2020/12/23 04:44:05;;;;;;;33.38;17.55;;;180.10;2150.40;;;;;;5097578;28;20114;-70
2020/12/23 04:46:41;;;;;;;30.48;18.33;;;204.80;2150.40;;;;;;5096966;28;20418;-69
2020/12/23 04:49:08;;;;;;;33.42;19.02;;;204.80;2150.40;;;;;;5097623;28;20031;-69
2020/12/23 04:51:39;;;;;;;36.90;18.17;;;180.10;2150.40;;;;;;5097447;28;20031;-69
2020/12/23 04:54:07;;;;;;;31.10;17.38;;;180.00;2176.00;;;;;;5097239;28;20028;-68
2020/12/23 04:56:34;;;;;;;30.52;17.00;;;180.00;2176.00;;;;;;5097438;28;20114;-68
2020/12/23 04:59:02;;;;;;;38.28;20.17;;;179.90;2201.60;;;;;;5097173;28;20024;-69
2020/12/23 05:01:28;;;;;;;33.80;19.95;;;179.60;2227.20;;;;;;5097409;28;20020;-69
2020/12/23 05:03:55;;;;;;;39.10;20.95;;;179.60;2252.80;;;;;;5097374;28;20028;-69
2020/12/23 05:06:22;;;;;;;45.78;23.92;;;179.50;2252.80;;;;;;5097083;28;20020;-69
2020/12/23 05:08:48;;;;;;;51.17;25.80;;;179.60;2252.80;;;;;;5096741;28;20066;-68
2020/12/23 05:11:15;;;;;;;49.53;25.02;;;179.40;2252.80;;;;;;5096964;28;20154;-68
2020/12/23 05:13:41;;;;;;;77.15;36.53;;;179.50;2252.80;;;;;;5096682;28;20035;-68
2020/12/23 05:16:09;;;;;;;67.90;36.13;;;179.30;2252.80;;;;;;5097205;28;20077;-69
2020/12/23 05:18:37;;;;;;;43.40;21.60;;;179.50;2252.80;;;;;;5097226;28;20024;-68
2020/12/23 05:21:16;;;;;;;205.88;122.38;;;179.50;2227.20;;;;;;5096879;28;20024;-70
2020/12/23 05:23:43;;;;;;;78.03;46.50;;;179.60;2227.20;;;;;;5096888;28;20027;-69
2020/12/23 05:26:10;;;;;;;52.72;26.48;;;179.70;2227.20;;;;;;5096897;28;20057;-69
2020/12/23 05:28:36;;;;;;;45.03;26.10;;;179.50;2252.80;;;;;;5096860;28;20016;-69
2020/12/23 05:31:05;;;;;;;41.67;24.17;;;179.60;2227.20;;;;;;5097148;28;20028;-70
2020/12/23 05:33:34;;;;;;;53.10;30.67;;;179.60;2227.20;;;;;;5096493;28;20140;-68
2020/12/23 05:36:19;;;;;;;45.63;25.85;;;179.70;2227.20;;;;;;5097076;28;20295;-69
2020/12/23 05:38:45;;;;;;;37.88;20.65;;;179.80;2252.80;;;;;;5096849;28;20028;-69
2020/12/23 05:41:15;;;;;;;29.58;18.40;;;179.90;2252.80;;;;;;5100124;28;20119;-68
2020/12/23 05:43:42;;;;;;;32.40;17.77;;;180.10;2227.20;;;;;;5100680;28;20032;-68
2020/12/23 05:46:11;;;;;;;29.80;15.77;;;180.10;2227.20;;;;;;5100340;28;20019;-69
2020/12/23 05:48:39;;;;;;;44.30;15.68;;;205.00;2201.60;;;;;;5099525;28;20047;-69
2020/12/23 05:51:07;;;;;;;34.47;17.02;;;205.00;2201.60;;;;;;5100285;28;20457;-69
2020/12/23 05:53:35;;;;;;;26.45;15.88;;;205.00;2201.60;;;;;;5100091;28;20108;-70
2020/12/23 05:56:03;;;;;;;28.10;16.80;;;205.10;2201.60;;;;;;5099925;28;20020;-69
2020/12/23 05:58:34;;;;;;;28.20;16.30;;;205.30;2176.00;;;;;;5100044;28;20028;-70
2020/12/23 06:01:06;;;;;;;27.27;15.52;;;205.10;2201.60;;;;;;5100112;28;20503;-68
2020/12/23 06:04:00;;;;;;;27.77;15.02;;;205.10;2176.00;;;;;;5099359;28;20047;-69
2020/12/23 06:06:30;;;;;;;31.50;17.48;;;205.30;2176.00;;;;;;5099957;28;20016;-68
2020/12/23 06:08:58;;;;;;;29.63;14.80;;;205.20;2176.00;;;;;;5099631;28;20114;-69
2020/12/23 06:11:29;;;;;;;31.42;15.93;;;205.30;2150.40;;;;;;5100131;28;20028;-69
2020/12/23 06:14:12;;;;;;;33.03;19.40;;;205.10;2176.00;;;;;;5100023;28;20070;-69
2020/12/23 06:16:41;;;;;;;84.43;46.08;;;205.20;2150.40;;;;;;5099812;28;20157;-69
2020/12/23 06:19:11;;;;;;;94.60;48.08;;;205.30;2124.80;;;;;;5099972;28;20081;-68
2020/12/23 06:21:38;;;;;;;108.28;51.22;;;205.30;2124.80;;;;;;5099714;28;20028;-70
2020/12/23 06:24:06;;;;;;;45.22;23.60;;;205.10;2176.00;;;;;;5099602;28;20100;-69
2020/12/23 06:26:34;;;;;;;39.97;21.55;;;205.20;2150.40;;;;;;5099802;28;20024;-69
2020/12/23 06:29:03;;;;;;;39.72;19.25;;;205.00;2150.40;;;;;;5099517;28;20016;-70
2020/12/23 06:31:31;;;;;;;48.20;23.13;;;205.00;2150.40;;;;;;5099202;28;20146;-69
2020/12/23 06:33:58;;;;;;;61.40;30.30;;;205.30;2124.80;;;;;;5099640;28;20038;-69
2020/12/23 06:36:34;;;;;;;56.00;30.25;;;205.20;2150.40;;;;;;5099628;28;20024;-70
2020/12/23 06:39:18;;;;;;;96.53;44.88;;;205.30;2150.40;;;;;;5098636;28;20417;-71
2020/12/23 06:41:48;;;;;;;100.00;47.22;;;205.40;2150.40;;;;;;5099520;28;20020;-70
2020/12/23 06:44:14;;;;;;;346.02;152.63;;;205.30;2176.00;;;;;;5099034;28;20027;-70
2020/12/23 06:46:58;;;;;;;64.10;34.00;;;205.30;2176.00;;;;;;5098178;28;20024;-70
2020/12/23 06:49:43;;;;;;;37.22;20.00;;;205.10;2201.60;;;;;;5099160;28;20016;-70
2020/12/23 06:52:27;;;;;;;41.70;22.15;;;205.10;2201.60;;;;;;5098747;28;20035;-70
2020/12/23 06:55:03;;;;;;;44.33;25.08;;;205.30;2176.00;;;;;;5099002;28;20066;-70
2020/12/23 06:57:38;;;;;;;42.10;26.98;;;205.30;2176.00;;;;;;5098476;28;20023;-70
2020/12/23 07:00:11;;;;;;;35.65;20.52;;;205.20;2201.60;;;;;;5098981;28;20032;-70
2020/12/23 07:02:40;;;;;;;35.00;20.42;;;205.30;2176.00;;;;;;5098707;28;20081;-70
2020/12/23 07:05:07;;;;;;;48.70;27.13;;;205.20;2176.00;;;;;;5098862;28;20028;-70
2020/12/23 07:07:43;;;;;;;53.58;31.27;;;205.30;2176.00;;;;;;5098722;28;20027;-70
2020/12/23 07:10:19;;;;;;;37.22;19.88;;;205.20;2176.00;;;;;;5098746;28;20028;-70
2020/12/23 07:12:53;;;;;;;43.25;19.83;;;205.30;2176.00;;;;;;5098352;28;20036;-70
2020/12/23 07:15:23;;;;;;;52.03;23.10;;;205.40;2150.40;;;;;;5098966;28;20114;-70
2020/12/23 07:18:06;;;;;;;46.80;24.75;;;205.30;2150.40;;;;;;5098585;28;20028;-70
2020/12/23 07:20:36;;;;;;;46.22;21.92;;;205.20;2176.00;;;;;;5098500;28;20028;-70
2020/12/23 07:23:10;;;;;;;45.17;22.48;;;205.40;2176.00;;;;;;5098231;28;20036;-69
2020/12/23 07:25:44;;;;;;;34.35;17.95;;;205.40;2176.00;;;;;;5098331;28;20066;-69
2020/12/23 07:28:10;;;;;;;45.72;27.42;;;205.30;2176.00;;;;;;5098635;28;20043;-69
2020/12/23 07:30:39;;;;;;;50.67;26.23;;;205.30;2176.00;;;;;;5097739;28;20383;-70
2020/12/23 07:33:16;;;;;;;53.97;29.20;;;205.40;2176.00;;;;;;5097495;28;20048;-70
2020/12/23 07:35:48;;;;;;;40.30;22.48;;;205.70;2150.40;;;;;;5098586;28;20119;-70
2020/12/23 07:38:15;;;;;;;47.70;27.05;;;230.60;2124.80;;;;;;5098496;28;20023;-70
2020/12/23 07:40:42;;;;;;;53.97;31.00;;;230.60;2099.20;;;;;;5098091;28;20028;-70
2020/12/23 07:43:08;;;;;;;43.65;27.02;;;230.80;2073.60;;;;;;5098362;28;20028;-70
2020/12/23 07:45:36;;;;;;;41.50;23.63;;;230.80;2073.60;;;;;;5098007;28;20035;-70
2020/12/23 07:48:07;;;;;;;39.90;22.88;;;230.80;2073.60;;;;;;5097731;28;20023;-70
2020/12/23 07:50:37;;;;;;;48.72;22.92;;;230.80;2073.60;;;;;;5097367;28;20020;-70
2020/12/23 07:53:21;;;;;;;43.53;23.45;;;230.70;2073.60;;;;;;5098411;28;20086;-70
2020/12/23 07:56:00;;;;;;;48.70;22.95;;;230.70;2073.60;;;;;;5097907;28;20098;-70
2020/12/23 07:58:26;;;;;;;52.78;24.02;;;230.90;2073.60;;;;;;5098164;28;20020;-70
2020/12/23 08:00:52;;;;;;;56.60;27.90;;;231.00;2048.00;;;;;;5096973;28;20215;-70
2020/12/23 08:03:29;;;;;;;58.08;28.58;;;231.30;2022.40;;;;;;5097591;28;20112;-70
2020/12/23 08:06:11;;;;;;;49.30;27.98;;;256.10;2022.40;;;;;;5097735;28;20024;-71
2020/12/23 08:08:42;;;;;;;48.78;28.13;;;256.20;1971.20;;;;;;5098248;28;20027;-71
2020/12/23 08:11:13;;;;;;;47.53;25.52;;;256.30;1971.20;;;;;;5097447;28;20020;-70
2020/12/23 08:13:39;;;;;;;53.55;23.80;;;256.50;1945.60;;;;;;5096813;28;20126;-70
2020/12/23 08:16:16;;;;;;;102.70;27.33;;;256.50;1971.20;;;;;;5097161;28;20412;-71
2020/12/23 08:18:43;;;;;;;49.20;24.25;;;256.80;1920.00;;;;;;5097288;28;20132;-70
2020/12/23 08:21:15;;;;;;;44.95;23.15;;;256.90;1945.60;;;;;;5097464;28;20036;-71
2020/12/23 08:23:41;;;;;;;59.28;25.85;;;256.80;1945.60;;;;;;5096724;28;20032;-70
2020/12/23 08:26:12;;;;;;;40.80;24.00;;;281.60;1945.60;;;;;;5097511;28;20081;-70
2020/12/23 08:28:43;;;;;;;45.95;23.65;;;281.90;1920.00;;;;;;5096793;28;20024;-70
2020/12/23 08:31:36;;;;;;;41.83;22.00;;;282.20;1920.00;;;;;;5096893;28;20024;-70
2020/12/23 08:34:04;;;;;;;38.85;22.23;;;282.30;1894.40;;;;;;5096661;28;20055;-70
2020/12/23 08:36:31;;;;;;;34.97;18.50;;;282.40;1894.40;;;;;;5097080;28;20020;-71
2020/12/23 08:38:57;;;;;;;36.00;19.35;;;282.50;1894.40;;;;;;5097322;28;20035;-71
2020/12/23 08:41:26;;;;;;;39.03;21.05;;;307.20;1894.40;;;;;;5097514;28;20027;-71
2020/12/23 08:43:52;;;;;;;39.67;23.65;;;307.20;1894.40;;;;;;5097291;28;20023;-70
2020/12/23 08:46:25;;;;;;;39.75;23.52;;;307.30;1894.40;;;;;;5097531;28;20020;-71
2020/12/23 08:48:52;;;;;;;49.40;23.67;;;307.50;1868.80;;;;;;5096927;28;20020;-70
2020/12/23 08:51:20;;;;;;;60.40;35.38;;;307.50;1868.80;;;;;;5097198;28;20081;-71
2020/12/23 08:53:47;;;;;;;46.15;25.65;;;307.40;1843.20;;;;;;5097148;28;20024;-71
2020/12/23 08:56:26;;;;;;;33.67;21.70;;;307.30;1868.80;;;;;;5097333;28;20028;-70
2020/12/23 08:58:58;;;;;;;36.75;20.05;;;307.30;1868.80;;;;;;5096887;28;20035;-70
2020/12/23 09:01:26;;;;;;;46.30;24.98;;;307.40;1868.80;;;;;;5097114;28;20379;-70
2020/12/23 09:04:04;;;;;;;42.70;21.27;;;307.50;1868.80;;;;;;5096586;28;20080;-69
2020/12/23 09:06:30;;;;;;;34.03;20.92;;;282.10;1868.80;;;;;;5096665;28;20326;-70
2020/12/23 09:09:20;;;;;;;40.13;21.02;;;282.40;1894.40;;;;;;5096466;28;20383;-69
2020/12/23 09:11:53;;;;;;;42.92;22.35;;;282.20;1894.40;;;;;;5096718;28;20085;-70
2020/12/23 09:14:34;;;;;;;39.05;22.92;;;281.90;1894.40;;;;;;5105124;28;20339;-70
2020/12/23 09:17:00;;;;;;;41.63;20.40;;;281.90;1920.00;;;;;;5108658;28;20040;-66
2020/12/23 09:19:48;;;;;;;37.17;20.42;;;281.60;1920.00;;;;;;5109502;28;20353;-66
2020/12/23 09:22:35;;;;;;;37.17;20.47;;;281.70;1945.60;;;;;;5105516;28;20383;-67
2020/12/23 09:25:14;;;;;;;40.97;22.40;;;281.80;1945.60;;;;;;5100612;28;20252;-67
2020/12/23 09:27:40;;;;;;;40.63;21.48;;;281.80;1920.00;;;;;;5100097;28;20016;-68
2020/12/23 09:30:07;;;;;;;32.53;21.25;;;281.70;1945.60;;;;;;5098916;28;20444;-69
2020/12/23 09:32:33;;;;;;;36.70;22.95;;;281.80;1920.00;;;;;;5104774;28;20051;-72
2020/12/23 09:35:14;;;;;;;41.58;22.48;;;281.90;1945.60;;;;;;5116822;27;20027;-68
2020/12/23 09:37:41;;;;;;;36.97;20.13;;;281.90;1920.00;;;;;;5106200;28;20322;-68
2020/12/23 09:40:07;;;;;;;36.67;21.02;;;281.90;1920.00;;;;;;5106259;27;20031;-70
2020/12/23 09:42:34;;;;;;;34.90;21.90;;;282.00;1920.00;;;;;;5108469;28;20024;-68
2020/12/23 09:45:00;;;;;;;39.10;21.83;;;282.00;1894.40;;;;;;5107450;28;20023;-72
2020/12/23 09:47:26;;;;;;;36.92;21.55;;;282.10;1868.80;;;;;;5107985;28;20020;-68
2020/12/23 09:49:53;;;;;;;44.65;25.33;;;282.10;1894.40;;;;;;5107948;28;20444;-68
2020/12/23 09:52:19;;;;;;;36.75;23.02;;;282.10;1894.40;;;;;;5104615;28;20387;-68
2020/12/23 09:54:44;;;;;;;37.58;25.25;;;282.10;1894.40;;;;;;5113618;28;20036;-69
2020/12/23 09:57:10;;;;;;;34.22;18.65;;;282.30;1894.40;;;;;;5109781;28;20435;-70
2020/12/23 09:59:36;;;;;;;34.05;18.75;;;282.40;1868.80;;;;;;5106001;28;20329;-70
2020/12/23 10:02:02;;;;;;;34.40;17.10;;;282.50;1868.80;;;;;;5119336;28;20035;-69
2020/12/23 10:04:28;;;;;;;48.97;23.40;;;282.40;1843.20;;;;;;5120103;28;20310;-69
2020/12/23 10:06:53;;;;;;;35.22;17.98;;;282.40;1868.80;;;;;;5119964;28;20027;-71
2020/12/23 10:09:19;;;;;;;30.52;18.23;;;282.40;1894.40;;;;;;5119482;28;20102;-70
2020/12/23 10:11:45;;;;;;;42.85;25.50;;;307.20;1894.40;;;;;;5119887;28;20031;-71
2020/12/23 10:14:10;;;;;;;34.03;18.15;;;307.50;1868.80;;;;;;5119246;28;20440;-69
2020/12/23 10:16:36;;;;;;;43.45;16.85;;;307.80;1843.20;;;;;;5120072;28;20413;-69
2020/12/23 10:19:02;;;;;;;30.83;17.85;;;307.70;1817.60;;;;;;5119970;28;20100;-70
2020/12/23 10:21:28;;;;;;;30.05;17.27;;;307.70;1843.20;;;;;;5119562;28;20031;-71
2020/12/23 10:23:54;;;;;;;25.10;17.10;;;307.50;1817.60;;;;;;5119959;28;20332;-70
2020/12/23 10:26:20;;;;;;;26.95;15.93;;;307.60;1843.20;;;;;;5119119;28;20031;-69
2020/12/23 10:28:46;;;;;;;30.13;15.63;;;307.80;1843.20;;;;;;5119845;28;20139;-71
2020/12/23 10:31:13;;;;;;;26.75;16.33;;;308.00;1817.60;;;;;;5119505;28;20114;-70
2020/12/23 10:33:39;;;;;;;34.28;23.38;;;308.00;1792.00;;;;;;5118544;28;20096;-71
2020/12/23 10:36:16;;;;;;;29.02;16.80;;;332.80;1817.60;;;;;;5119224;27;20028;-71
2020/12/23 10:38:42;;;;;;;33.63;20.77;;;332.90;1766.40;;;;;;5119122;28;20023;-71
2020/12/23 10:41:09;;;;;;;32.55;19.15;;;308.00;1766.40;;;;;;5118411;28;20072;-70
2020/12/23 10:43:35;;;;;;;31.35;18.13;;;308.00;1766.40;;;;;;5119103;28;20027;-70
2020/12/23 10:46:01;;;;;;;29.08;16.63;;;332.80;1766.40;;;;;;5116260;27;20053;-71
2020/12/23 10:48:27;;;;;;;69.47;35.42;;;333.00;1766.40;;;;;;5119051;28;20031;-70
2020/12/23 10:50:52;;;;;;;31.08;18.10;;;333.10;1766.40;;;;;;5119212;28;20156;-70
2020/12/23 10:53:18;;;;;;;32.20;19.20;;;333.20;1740.80;;;;;;5117880;28;20445;-70
2020/12/23 10:55:44;;;;;;;46.22;23.80;;;333.10;1740.80;;;;;;5117609;28;20030;-70
2020/12/23 10:58:10;;;;;;;46.00;27.13;;;333.40;1740.80;;;;;;5117562;28;20094;-68
2020/12/23 11:00:35;;;;;;;36.72;22.48;;;333.50;1740.80;;;;;;5118029;28;20024;-71
2020/12/23 11:03:01;;;;;;;50.70;26.77;;;333.50;1740.80;;;;;;5118739;28;20123;-69
2020/12/23 11:05:27;;;;;;;38.90;21.40;;;333.60;1689.60;;;;;;5118646;28;20026;-69
2020/12/23 11:07:53;;;;;;;98.47;45.75;;;358.40;1689.60;;;;;;5119147;28;20027;-69
2020/12/23 11:10:20;;;;;;;60.15;29.95;;;358.60;1664.00;;;;;;5117928;28;20375;-70
2020/12/23 11:12:47;;;;;;;61.50;28.75;;;358.60;1664.00;;;;;;5117862;28;20093;-68
2020/12/23 11:15:13;;;;;;;33.33;21.50;;;358.70;1638.40;;;;;;5118196;28;20372;-70
2020/12/23 11:17:39;;;;;;;39.67;24.88;;;359.00;1612.80;;;;;;5117781;28;20027;-69
2020/12/23 11:20:04;;;;;;;35.90;18.42;;;359.30;1587.20;;;;;;5118991;28;20069;-69
2020/12/23 11:22:30;;;;;;;42.15;23.38;;;359.30;1612.80;;;;;;5118714;28;20023;-70
2020/12/23 11:24:56;;;;;;;32.85;20.13;;;359.20;1587.20;;;;;;5118159;28;20024;-70
2020/12/23 11:27:22;;;;;;;33.08;17.95;;;384.40;1561.60;;;;;;5118387;28;20452;-68
2020/12/23 11:29:47;;;;;;;39.83;21.27;;;409.70;1561.60;;;;;;5117335;28;20027;-71
2020/12/23 11:32:13;;;;;;;43.58;21.30;;;410.30;1510.40;;;;;;5118189;28;20114;-70
2020/12/23 11:34:39;;;;;;;34.88;16.83;;;435.50;1459.20;;;;;;5117837;28;20027;-69
2020/12/23 11:37:06;;;;;;;29.42;18.58;;;435.40;1459.20;;;;;;5115739;28;20024;-69
2020/12/23 11:39:32;;;;;;;41.58;19.92;;;436.00;1408.00;;;;;;5117598;28;20124;-68
2020/12/23 11:42:01;;;;;;;22.83;15.40;;;461.20;1382.40;;;;;;5118148;28;20027;-67
2020/12/23 11:44:28;;;;;;;26.48;17.15;;;461.50;1356.80;;;;;;5117028;28;20032;-67
2020/12/23 11:46:54;;;;;;;39.10;19.20;;;486.50;1305.60;;;;;;5116976;28;20020;-70
2020/12/23 11:49:21;;;;;;;29.05;17.30;;;486.80;1305.60;;;;;;5118164;28;20397;-68
2020/12/23 11:51:50;;;;;;;24.60;14.32;;;486.70;1305.60;;;;;;5118125;28;20026;-68
2020/12/23 11:54:17;;;;;;;26.65;13.60;;;486.50;1305.60;;;;;;5116903;28;20126;-67
2020/12/23 11:56:47;;;;;;;31.77;13.45;;;486.50;1280.00;;;;;;5117851;28;20417;-67
2020/12/23 11:59:13;;;;;;;26.25;12.77;;;486.60;1280.00;;;;;;5118398;27;20024;-70
2020/12/23 12:01:39;;;;;;;22.10;13.70;;;486.90;1280.00;;;;;;5118208;28;20028;-68
2020/12/23 12:04:05;;;;;;;26.83;14.07;;;512.50;1203.20;;;;;;5117341;28;20443;-67